Flight Track Log - Related Links

Times and Time Zones

All times are in EDT time to prevent confusion due to time zone crossing. See the AAY844 flight status page for this flight to view local times or setup timezone preferences in your user account.

Time Position Orientation Groundspeed Altitude Reporting Facility
EDT Latitude Longitude Course Direction KTS MPH feet Rate Location/Type
Mon 02:53:43 PM 27.9167 -82.6833 North 156 180 500  Level Tampa TRACON
Mon 02:54:37 PM 27.9667 -82.7167 330° Northwest 198 228 2,700 2,000 Climbing Tampa TRACON
Mon 02:55:37 PM 28.0333 -82.7500 336° Northwest 268 308 4,300 1,150 Climbing Tampa TRACON
Mon 02:56:37 PM 28.1000 -82.7500 360° North 273 314 5,000 1,800 Climbing Tampa TRACON
Mon 02:57:37 PM 28.1833 -82.7667 350° North 261 300 7,900 1,863 Climbing Tampa TRACON
Mon 02:59:00 PM 28.6012 -82.6470 North  Level FlightAware Approximate
Mon 02:59:18 PM 28.2953 -82.7475 North 280 322 10,000  Level Miami Center
Mon 03:00:19 PM 28.3919 -82.7392 North 329 379 11,600 2,049 Climbing Miami Center
Mon 03:01:21 PM 28.5161 -82.6989 16° North 372 428 14,200 2,371 Climbing Miami Center
Mon 03:02:23 PM 28.6264 -82.6550 19° North 391 450 16,500 2,032 Climbing Miami Center
Mon 03:03:25 PM 28.7356 -82.6122 19° North 408 470 18,400 1,694 Climbing Miami Center
Mon 03:04:27 PM 28.8475 -82.5711 18° North 417 480 20,000 1,548 Climbing Miami Center
Mon 03:05:29 PM 28.9647 -82.5408 13° North 429 494 21,600 1,452 Climbing Miami Center
Mon 03:06:31 PM 29.0869 -82.5133 11° North 443 510 23,000 1,403 Climbing Miami Center
Mon 03:07:33 PM 29.2142 -82.5189 358° North 464 534 24,500 1,475 Climbing Miami Center
Mon 03:08:33 PM 29.3642 -82.5400 353° North 458 527 26,000 750 Climbing Jacksonville Center
Mon 03:09:33 PM 29.4936 -82.5539 355° North 463 533 26,000 950 Level Jacksonville Center
Mon 03:10:33 PM 29.6189 -82.5678 354° North 463 533 27,900 1,650 Climbing Jacksonville Center
Mon 03:11:33 PM 29.7464 -82.5839 354° North 463 533 29,300 1,350 Climbing Jacksonville Center
Mon 03:12:33 PM 29.8694 -82.6003 353° North 458 527 30,600 1,050 Climbing Jacksonville Center
Mon 03:13:33 PM 29.9906 -82.6167 353° North 444 511 31,400 900 Climbing Jacksonville Center
Mon 03:14:33 PM 30.1117 -82.6356 352° North 444 511 32,400 800 Climbing Jacksonville Center
Mon 03:15:33 PM 30.2286 -82.6475 355° North 437 503 33,000 300 Climbing Jacksonville Center
Mon 03:16:33 PM 30.3478 -82.6639 353° North 431 496 33,000  Level Jacksonville Center
Mon 03:17:33 PM 30.4689 -82.6589 North 431 496 33,000  Level Jacksonville Center
Mon 03:18:33 PM 30.5564 -82.5911 34° Northeast 396 456 33,000  Level Jacksonville Center
Mon 03:19:33 PM 30.6458 -82.4942 43° Northeast 410 472 33,000  Level Jacksonville Center
Mon 03:20:33 PM 30.7333 -82.3994 43° Northeast 417 480 33,000  Level Jacksonville Center
Mon 03:21:33 PM 30.8225 -82.3047 42° Northeast 422 486 33,000  Level Jacksonville Center
Mon 03:22:33 PM 30.9119 -82.2097 42° Northeast 427 491 33,000  Level Jacksonville Center
Mon 03:23:33 PM 30.9992 -82.1169 42° Northeast 427 491 33,000 -50 Level Jacksonville Center
Mon 03:24:33 PM 31.0903 -82.0242 41° Northeast 427 491 32,900  Descending Jacksonville Center
Mon 03:25:33 PM 31.1817 -81.9261 43° Northeast 432 497 33,000 50 Climbing Jacksonville Center
Mon 03:26:33 PM 31.2706 -81.8303 43° Northeast 432 497 33,000  Level Jacksonville Center
Mon 03:27:33 PM 31.3594 -81.7344 43° Northeast 432 497 33,000  Level Jacksonville Center
Mon 03:28:33 PM 31.4544 -81.6286 44° Northeast 427 491 33,000  Level Jacksonville Center
Mon 03:29:33 PM 31.5372 -81.5422 42° Northeast 427 491 33,000  Level Jacksonville Center
Mon 03:30:33 PM 31.6342 -81.4333 44° Northeast 427 491 33,000  Level Jacksonville Center
Mon 03:31:33 PM 31.7228 -81.3392 42° Northeast 434 499 33,000  Level Jacksonville Center
Mon 03:32:33 PM 31.8050 -81.2472 44° Northeast 434 499 33,000  Level Jacksonville Center
Mon 03:33:33 PM 31.9000 -81.1575 39° Northeast 434 499 33,000  Level Jacksonville Center
Mon 03:34:33 PM 31.9992 -81.0797 34° Northeast 434 499 33,000  Level Jacksonville Center
Mon 03:35:33 PM 32.1125 -80.9867 35° Northeast 446 513 33,000  Level Jacksonville Center
Mon 03:36:33 PM 32.2136 -80.9111 32° Northeast 433 498 33,000  Level Jacksonville Center
Mon 03:37:33 PM 32.2958 -80.8306 40° Northeast 433 498 33,000  Level Jacksonville Center
Mon 03:38:33 PM 32.3861 -80.7325 43° Northeast 433 498 33,000  Level Jacksonville Center
Mon 03:39:33 PM 32.4719 -80.6319 45° Northeast 428 493 33,000 -50 Level Jacksonville Center
Mon 03:40:33 PM 32.5600 -80.5314 44° Northeast 428 493 32,900  Descending Jacksonville Center
Mon 03:41:33 PM 32.6458 -80.4328 44° Northeast 428 493 33,000  Climbing Jacksonville Center
Mon 03:42:33 PM 32.7314 -80.3317 45° Northeast 428 493 32,900  Descending Jacksonville Center
Mon 03:43:33 PM 32.8128 -80.2256 48° Northeast 423 487 33,000 50 Climbing Jacksonville Center
Mon 03:44:33 PM 32.8939 -80.1169 48° Northeast 423 487 33,000 -50 Level Jacksonville Center
Mon 03:45:33 PM 32.9914 -80.0000 45° Northeast 437 503 32,900  Descending Jacksonville Center
Mon 03:46:33 PM 33.0981 -79.9219 32° Northeast 443 510 33,000  Climbing Jacksonville Center
Mon 03:47:33 PM 33.2047 -79.8442 31° Northeast 443 510 32,900  Descending Jacksonville Center
Mon 03:48:33 PM 33.3114 -79.7683 31° Northeast 443 510 33,000 50 Climbing Jacksonville Center
Mon 03:49:33 PM 33.4181 -79.6875 32° Northeast 443 510 33,000  Level Jacksonville Center
Mon 03:50:34 PM 33.5225 -79.6089 32° Northeast 438 504 33,000  Level Jacksonville Center
Mon 03:51:33 PM 33.6289 -79.5278 32° Northeast 443 510 33,000  Level Jacksonville Center
Mon 03:52:33 PM 33.7353 -79.4511 31° Northeast 443 510 33,000 -50 Level Jacksonville Center
Mon 03:53:34 PM 33.8272 -79.3825 32° Northeast 437 503 32,900  Descending Jacksonville Center
Mon 03:54:33 PM 33.9333 -79.3008 33° Northeast 442 509 33,000  Climbing Jacksonville Center
Mon 03:55:33 PM 34.0417 -79.2211 31° Northeast 447 514 32,900  Descending Jacksonville Center
Mon 03:57:54 PM 34.3000 -79.0258 32° Northeast 464 534 33,000 30 Climbing Washington Center
Mon 03:58:54 PM 34.4022 -78.9447 33° Northeast 453 521 33,000  Level Washington Center
Mon 03:59:54 PM 34.5089 -78.8633 32° Northeast 453 521 33,000  Level Washington Center
Mon 04:00:55 PM 34.6028 -78.7864 34° Northeast 448 516 33,000  Level Washington Center
Mon 04:01:56 PM 34.7200 -78.6975 32° Northeast 448 516 33,000  Level Washington Center
Mon 04:02:56 PM 34.8136 -78.6225 33° Northeast 448 516 33,000  Level Washington Center
Mon 04:03:54 PM 34.9181 -78.5403 33° Northeast 443 510 33,000  Level Washington Center
Mon 04:04:55 PM 35.0242 -78.4581 32° Northeast 448 516 33,000  Level Washington Center
Mon 04:05:55 PM 35.1328 -78.3706 33° Northeast 448 516 33,000  Level Washington Center
Mon 04:06:56 PM 35.2411 -78.2878 32° Northeast 448 516 33,000  Level Washington Center
Mon 04:07:56 PM 35.3472 -78.1997 34° Northeast 448 516 33,000  Level Washington Center
Mon 04:08:55 PM 35.4661 -78.1092 32° Northeast 454 522 33,000  Level Washington Center
Mon 04:09:56 PM 35.5764 -78.0233 32° Northeast 454 522 33,000  Level Washington Center
Mon 04:10:56 PM 35.6844 -77.9394 32° Northeast 454 522 33,000  Level Washington Center
Mon 04:11:54 PM 35.7903 -77.8556 33° Northeast 454 522 33,000  Level Washington Center
Mon 04:12:55 PM 35.8983 -77.7717 32° Northeast 454 522 33,000  Level Washington Center
Mon 04:13:55 PM 36.0022 -77.6819 35° Northeast 454 522 33,000  Level Washington Center
Mon 04:14:56 PM 36.1042 -77.5844 38° Northeast 454 522 33,000  Level Washington Center
Mon 04:15:56 PM 36.2058 -77.4892 37° Northeast 459 528 33,000  Level Washington Center
Mon 04:16:54 PM 36.2967 -77.4089 35° Northeast 448 516 33,000  Level Washington Center
Mon 04:17:55 PM 36.3961 -77.3131 38° Northeast 448 516 33,000  Level Washington Center
Mon 04:18:55 PM 36.5017 -77.2197 35° Northeast 448 516 33,000  Level Washington Center
Mon 04:19:56 PM 36.6031 -77.1261 37° Northeast 453 521 33,000  Level Washington Center
Mon 04:20:54 PM 36.7067 -77.0297 37° Northeast 458 527 33,000  Level Washington Center
Mon 04:21:55 PM 36.8100 -76.9331 37° Northeast 458 527 33,000  Level Washington Center
Mon 04:22:56 PM 36.9131 -76.8389 36° Northeast 458 527 33,000  Level Washington Center
Mon 04:23:56 PM 37.0269 -76.7339 36° Northeast 458 527 33,000  Level Washington Center
Mon 04:24:54 PM 37.1319 -76.6367 36° Northeast 458 527 33,000  Level Washington Center
Mon 04:25:56 PM 37.2350 -76.5414 36° Northeast 458 527 33,000  Level Washington Center
Mon 04:26:57 PM 37.3381 -76.4461 36° Northeast 458 527 33,000  Level Washington Center
Mon 04:27:55 PM 37.4428 -76.3503 36° Northeast 458 527 33,000  Level Washington Center
Mon 04:28:55 PM 37.5478 -76.2519 37° Northeast 458 527 33,000  Level Washington Center
Mon 04:29:56 PM 37.6506 -76.1558 37° Northeast 458 527 33,000  Level Washington Center
Mon 04:30:56 PM 37.7592 -76.0647 34° Northeast 458 527 33,000  Level Washington Center
Mon 04:31:55 PM 37.8619 -75.9625 38° Northeast 458 527 33,000  Level Washington Center
Mon 04:32:55 PM 37.9558 -75.8736 37° Northeast 467 537 33,000  Level Washington Center
Mon 04:33:57 PM 38.0603 -75.7764 36° Northeast 467 537 33,000  Level Washington Center
Mon 04:34:55 PM 38.1669 -75.6764 36° Northeast 462 532 33,000 -51 Level Washington Center
Mon 04:35:54 PM 38.2692 -75.5786 37° Northeast 462 532 32,900  Descending Washington Center
Mon 04:36:55 PM 38.3817 -75.4964 30° Northeast 457 526 33,000 49 Climbing Washington Center
Mon 04:37:56 PM 38.5003 -75.4431 19° North 458 527 33,000  Level Washington Center
Mon 04:38:54 PM 38.6233 -75.3978 16° North 452 520 33,000  Level Washington Center
Mon 04:39:54 PM 38.7442 -75.3467 18° North 447 514 33,000  Level Washington Center
Mon 04:40:55 PM 38.8650 -75.2958 18° North 453 521 33,000  Level Washington Center
Mon 04:41:56 PM 38.9900 -75.2417 19° North 453 521 33,000  Level Washington Center
Mon 04:42:56 PM 39.1253 -75.1794 20° North 460 529 33,000  Level Washington Center
Mon 04:43:54 PM 39.2206 -75.0906 36° Northeast 465 535 33,000  Level Washington Center
Mon 04:44:54 PM 39.3389 -74.9825 35° Northeast 477 549 33,000 -39 Level Washington Center
Mon 04:46:26 PM 39.4931 -74.8411 35° Northeast 473 544 32,900  Descending New York Center
Mon 04:47:26 PM 39.6003 -74.7475 34° Northeast 468 539 33,000 50 Climbing New York Center
Mon 04:48:26 PM 39.7144 -74.6381 36° Northeast 468 539 33,000  Level New York Center
Mon 04:49:26 PM 39.8156 -74.5492 34° Northeast 468 539 33,000  Level New York Center
Mon 04:50:26 PM 39.9189 -74.4464 37° Northeast 468 539 33,000  Level New York Center
Mon 04:51:26 PM 40.0219 -74.3489 36° Northeast 468 539 33,000  Level New York Center
Mon 04:52:26 PM 40.1131 -74.2286 45° Northeast 462 532 33,000 -250 Level New York Center
Mon 04:53:26 PM 40.2042 -74.1028 47° Northeast 462 532 32,500 -900 Descending New York Center
Mon 04:54:26 PM 40.2869 -73.9733 50° Northeast 467 537 31,200 -1,750 Descending New York Center
Mon 04:55:26 PM 40.3578 -73.8214 59° Northeast 473 544 29,000 -2,250 Descending New York Center
Mon 04:56:26 PM 40.4281 -73.6719 58° Northeast 480 552 26,700 -2,314 Descending New York Center
Mon 04:58:56 PM 40.6911 -73.4028 38° Northeast 446 513 20,900 -2,104 Descending Boston Center
Mon 04:59:57 PM 40.7739 -73.3231 36° Northeast 430 495 19,300 -942 Descending Boston Center
Mon 05:00:57 PM 40.8739 -73.2100 41° Northeast 420 483 19,000 -726 Descending Boston Center
Mon 05:02:01 PM 40.9764 -73.1408 27° Northeast 415 478 17,800 -1,403 Descending Boston Center
Mon 05:03:01 PM 41.0808 -73.1714 348° North 386 444 16,100 -1,475 Descending Boston Center
Mon 05:04:03 PM 41.1761 -73.2281 336° Northwest 379 436 14,800 -1,756 Descending Boston Center
Mon 05:05:04 PM 41.2806 -73.2936 335° Northwest 376 433 12,500 -1,839 Descending Boston Center
Mon 05:06:07 PM 41.3814 -73.3556 335° Northwest 370 426 11,000 -726 Descending Boston Center
Mon 05:07:08 PM 41.4661 -73.4081 335° Northwest 342 394 11,000 -49 Level Boston Center
Mon 05:08:09 PM 41.5486 -73.4592 335° Northwest 333 383 10,900 -541 Descending Boston Center
Mon 05:09:10 PM 41.5969 -73.5583 303° West 303 349 9,900 -960 Descending Boston Center
Mon 05:10:14 PM 41.6219 -73.6544 289° West 278 320 8,900 -1,355 Descending Boston Center
Mon 05:11:14 PM 41.6475 -73.7517 289° West 262 302 7,100 -1,686 Descending Boston Center
Mon 05:12:15 PM 41.6561 -73.8444 277° West 256 295 5,500 -1,175 Descending Boston Center
Mon 05:14:28 PM 41.5500 -73.9833 224° Southwest 209 241 3,300 -1,088 Descending New York TRACON
Mon 05:15:28 PM 41.5167 -74.0167 217° Southwest 158 182 2,000 -1,200 Descending New York TRACON
Mon 05:16:28 PM 41.5167 -74.0667 270° West 145 167 900 -1,100 Descending New York TRACON
Mon 05:18:00 PM 41.5000 -74.1000 217° Southwest  Level FlightAware Approximate
Mon 05:25:00 PM 41.5041 -74.1048 217° Southwest  Level Estimated

Login

Don't have an account? Register now (free) for customized features, flight alerts, and more!